sensor_id;sensor_type;location;lat;lon;timestamp;temperature;humidity
423;DHT22;198;48.752;9.180;2023-09-30T00:00:55;17.60;99.90
423;DHT22;198;48.752;9.180;2023-09-30T00:03:21;17.60;99.90
423;DHT22;198;48.752;9.180;2023-09-30T00:05:47;17.60;99.90
423;DHT22;198;48.752;9.180;2023-09-30T00:08:12;17.60;99.90
423;DHT22;198;48.752;9.180;2023-09-30T00:10:38;17.60;99.90
423;DHT22;198;48.752;9.180;2023-09-30T00:13:03;17.50;99.90
423;DHT22;198;48.752;9.180;2023-09-30T00:15:35;17.50;99.90
423;DHT22;198;48.752;9.180;2023-09-30T00:18:00;17.40;99.90
423;DHT22;198;48.752;9.180;2023-09-30T00:20:27;17.30;99.90
423;DHT22;198;48.752;9.180;2023-09-30T00:22:52;17.30;99.90
423;DHT22;198;48.752;9.180;2023-09-30T00:25:18;17.20;99.90
423;DHT22;198;48.752;9.180;2023-09-30T00:27:44;17.10;99.90
423;DHT22;198;48.752;9.180;2023-09-30T00:30:09;17.10;99.90
423;DHT22;198;48.752;9.180;2023-09-30T00:32:35;16.90;99.90
423;DHT22;198;48.752;9.180;2023-09-30T00:35:01;16.90;99.90
423;DHT22;198;48.752;9.180;2023-09-30T00:37:27;16.80;99.90
423;DHT22;198;48.752;9.180;2023-09-30T00:39:53;16.80;99.90
423;DHT22;198;48.752;9.180;2023-09-30T00:42:19;16.70;99.90
423;DHT22;198;48.752;9.180;2023-09-30T00:44:46;16.70;99.90
423;DHT22;198;48.752;9.180;2023-09-30T00:47:13;16.70;99.90
423;DHT22;198;48.752;9.180;2023-09-30T00:49:40;16.80;99.90
423;DHT22;198;48.752;9.180;2023-09-30T00:52:09;16.90;99.90
423;DHT22;198;48.752;9.180;2023-09-30T00:54:34;16.90;99.90
423;DHT22;198;48.752;9.180;2023-09-30T00:57:02;17.00;99.90
423;DHT22;198;48.752;9.180;2023-09-30T00:59:30;17.00;99.90
423;DHT22;198;48.752;9.180;2023-09-30T01:01:59;17.00;99.90
423;DHT22;198;48.752;9.180;2023-09-30T01:04:27;17.10;99.90
423;DHT22;198;48.752;9.180;2023-09-30T01:06:52;17.10;99.90
423;DHT22;198;48.752;9.180;2023-09-30T01:09:18;17.10;99.90
423;DHT22;198;48.752;9.180;2023-09-30T01:11:44;17.20;99.90
423;DHT22;198;48.752;9.180;2023-09-30T01:14:29;17.20;99.90
423;DHT22;198;48.752;9.180;2023-09-30T01:16:55;17.30;99.90
423;DHT22;198;48.752;9.180;2023-09-30T01:19:21;17.30;99.90
423;DHT22;198;48.752;9.180;2023-09-30T01:21:46;17.40;99.90
423;DHT22;198;48.752;9.180;2023-09-30T01:24:15;17.40;99.90
423;DHT22;198;48.752;9.180;2023-09-30T01:26:41;17.40;99.90
423;DHT22;198;48.752;9.180;2023-09-30T01:29:08;17.50;99.90
423;DHT22;198;48.752;9.180;2023-09-30T01:31:37;17.50;99.90
423;DHT22;198;48.752;9.180;2023-09-30T01:34:02;17.50;99.90
423;DHT22;198;48.752;9.180;2023-09-30T01:36:28;17.50;99.90
423;DHT22;198;48.752;9.180;2023-09-30T01:38:54;17.50;99.90
423;DHT22;198;48.752;9.180;2023-09-30T01:41:19;17.40;99.90
423;DHT22;198;48.752;9.180;2023-09-30T01:43:45;17.40;99.90
423;DHT22;198;48.752;9.180;2023-09-30T01:46:10;17.40;99.90
423;DHT22;198;48.752;9.180;2023-09-30T01:48:36;17.40;99.90
423;DHT22;198;48.752;9.180;2023-09-30T01:51:01;17.40;99.90
423;DHT22;198;48.752;9.180;2023-09-30T01:53:27;17.40;99.90
423;DHT22;198;48.752;9.180;2023-09-30T01:55:52;17.30;99.90
423;DHT22;198;48.752;9.180;2023-09-30T01:58:18;17.20;99.90
423;DHT22;198;48.752;9.180;2023-09-30T02:00:43;17.10;99.90
423;DHT22;198;48.752;9.180;2023-09-30T02:03:10;17.00;99.90
423;DHT22;198;48.752;9.180;2023-09-30T02:05:38;16.90;99.90
423;DHT22;198;48.752;9.180;2023-09-30T02:08:04;16.80;99.90
423;DHT22;198;48.752;9.180;2023-09-30T02:10:31;16.70;99.90
423;DHT22;198;48.752;9.180;2023-09-30T02:12:57;16.50;99.90
423;DHT22;198;48.752;9.180;2023-09-30T02:15:24;16.40;99.90
423;DHT22;198;48.752;9.180;2023-09-30T02:17:50;16.40;99.90
423;DHT22;198;48.752;9.180;2023-09-30T02:20:16;16.30;99.90
423;DHT22;198;48.752;9.180;2023-09-30T02:22:45;16.20;99.90
423;DHT22;198;48.752;9.180;2023-09-30T02:25:11;16.20;99.90
423;DHT22;198;48.752;9.180;2023-09-30T02:27:39;16.10;99.90
423;DHT22;198;48.752;9.180;2023-09-30T02:30:05;16.10;99.90
423;DHT22;198;48.752;9.180;2023-09-30T02:32:31;16.00;99.90
423;DHT22;198;48.752;9.180;2023-09-30T02:34:58;16.00;99.90
423;DHT22;198;48.752;9.180;2023-09-30T02:37:24;16.00;99.90
423;DHT22;198;48.752;9.180;2023-09-30T02:39:50;16.10;99.90
423;DHT22;198;48.752;9.180;2023-09-30T02:42:16;16.10;99.90
423;DHT22;198;48.752;9.180;2023-09-30T02:44:42;16.10;99.90
423;DHT22;198;48.752;9.180;2023-09-30T02:47:07;16.20;99.90
423;DHT22;198;48.752;9.180;2023-09-30T02:49:34;16.20;99.90
423;DHT22;198;48.752;9.180;2023-09-30T02:51:59;16.30;99.90
423;DHT22;198;48.752;9.180;2023-09-30T02:54:25;16.30;99.90
423;DHT22;198;48.752;9.180;2023-09-30T02:56:50;16.40;99.90
423;DHT22;198;48.752;9.180;2023-09-30T02:59:17;16.40;99.90
423;DHT22;198;48.752;9.180;2023-09-30T03:01:44;16.40;99.90
423;DHT22;198;48.752;9.180;2023-09-30T03:04:10;16.40;99.90
423;DHT22;198;48.752;9.180;2023-09-30T03:06:38;16.40;99.90
423;DHT22;198;48.752;9.180;2023-09-30T03:09:04;16.40;99.90
423;DHT22;198;48.752;9.180;2023-09-30T03:11:30;16.40;99.90
423;DHT22;198;48.752;9.180;2023-09-30T03:13:56;16.40;99.90
423;DHT22;198;48.752;9.180;2023-09-30T03:16:22;16.40;99.90
423;DHT22;198;48.752;9.180;2023-09-30T03:18:49;16.40;99.90
423;DHT22;198;48.752;9.180;2023-09-30T03:21:15;16.40;99.90
423;DHT22;198;48.752;9.180;2023-09-30T03:23:41;16.40;99.90
423;DHT22;198;48.752;9.180;2023-09-30T03:26:07;16.40;99.90
423;DHT22;198;48.752;9.180;2023-09-30T03:28:38;16.40;99.90
423;DHT22;198;48.752;9.180;2023-09-30T03:31:04;16.40;99.90
423;DHT22;198;48.752;9.180;2023-09-30T03:33:34;16.40;99.90
423;DHT22;198;48.752;9.180;2023-09-30T03:36:00;16.40;99.90
423;DHT22;198;48.752;9.180;2023-09-30T03:38:26;16.40;99.90
423;DHT22;198;48.752;9.180;2023-09-30T03:40:52;16.40;99.90
423;DHT22;198;48.752;9.180;2023-09-30T03:43:21;16.40;99.90
423;DHT22;198;48.752;9.180;2023-09-30T03:45:46;16.50;99.90
423;DHT22;198;48.752;9.180;2023-09-30T03:48:12;16.50;99.90
423;DHT22;198;48.752;9.180;2023-09-30T03:50:37;16.50;99.90
423;DHT22;198;48.752;9.180;2023-09-30T03:53:04;16.50;99.90
423;DHT22;198;48.752;9.180;2023-09-30T03:55:30;16.50;99.90
423;DHT22;198;48.752;9.180;2023-09-30T03:57:57;16.50;99.90
423;DHT22;198;48.752;9.180;2023-09-30T04:00:22;16.50;99.90
423;DHT22;198;48.752;9.180;2023-09-30T04:02:49;16.50;99.90
423;DHT22;198;48.752;9.180;2023-09-30T04:05:17;16.50;99.90
423;DHT22;198;48.752;9.180;2023-09-30T04:07:43;16.50;99.90
423;DHT22;198;48.752;9.180;2023-09-30T04:10:09;16.40;99.90
423;DHT22;198;48.752;9.180;2023-09-30T04:12:35;16.50;99.90
423;DHT22;198;48.752;9.180;2023-09-30T04:15:01;16.50;99.90
423;DHT22;198;48.752;9.180;2023-09-30T04:17:29;16.50;99.90
423;DHT22;198;48.752;9.180;2023-09-30T04:19:54;16.50;99.90
423;DHT22;198;48.752;9.180;2023-09-30T04:22:20;16.50;99.90
423;DHT22;198;48.752;9.180;2023-09-30T04:24:46;16.50;99.90
423;DHT22;198;48.752;9.180;2023-09-30T04:27:12;16.40;99.90
423;DHT22;198;48.752;9.180;2023-09-30T04:29:37;16.40;99.90
423;DHT22;198;48.752;9.180;2023-09-30T04:32:04;16.50;99.90
423;DHT22;198;48.752;9.180;2023-09-30T04:34:30;16.40;99.90
423;DHT22;198;48.752;9.180;2023-09-30T04:36:55;16.40;99.90
423;DHT22;198;48.752;9.180;2023-09-30T04:39:21;16.50;99.90
423;DHT22;198;48.752;9.180;2023-09-30T04:41:47;16.50;99.90
423;DHT22;198;48.752;9.180;2023-09-30T04:44:13;16.50;99.90
423;DHT22;198;48.752;9.180;2023-09-30T04:46:39;16.40;99.90
423;DHT22;198;48.752;9.180;2023-09-30T04:49:07;16.50;99.90
423;DHT22;198;48.752;9.180;2023-09-30T04:51:33;16.50;99.90
423;DHT22;198;48.752;9.180;2023-09-30T04:53:59;16.50;99.90
423;DHT22;198;48.752;9.180;2023-09-30T04:56:25;16.60;99.90
423;DHT22;198;48.752;9.180;2023-09-30T04:58:51;16.60;99.90
423;DHT22;198;48.752;9.180;2023-09-30T05:01:16;16.60;99.90
423;DHT22;198;48.752;9.180;2023-09-30T05:03:44;16.60;99.90
423;DHT22;198;48.752;9.180;2023-09-30T05:06:10;16.60;99.90
423;DHT22;198;48.752;9.180;2023-09-30T05:08:35;16.60;99.90
423;DHT22;198;48.752;9.180;2023-09-30T05:11:01;16.60;99.90
423;DHT22;198;48.752;9.180;2023-09-30T05:13:26;16.60;99.90
423;DHT22;198;48.752;9.180;2023-09-30T05:15:52;16.60;99.90
423;DHT22;198;48.752;9.180;2023-09-30T05:18:18;16.60;99.90
423;DHT22;198;48.752;9.180;2023-09-30T05:20:43;16.60;99.90
423;DHT22;198;48.752;9.180;2023-09-30T05:23:09;16.60;99.90
423;DHT22;198;48.752;9.180;2023-09-30T05:25:38;16.60;99.90
423;DHT22;198;48.752;9.180;2023-09-30T05:28:05;16.50;99.90
423;DHT22;198;48.752;9.180;2023-09-30T05:30:32;16.50;99.90
423;DHT22;198;48.752;9.180;2023-09-30T05:32:59;16.50;99.90
423;DHT22;198;48.752;9.180;2023-09-30T05:35:25;16.60;99.90
423;DHT22;198;48.752;9.180;2023-09-30T05:37:51;16.50;99.90
423;DHT22;198;48.752;9.180;2023-09-30T05:40:19;16.50;99.90
423;DHT22;198;48.752;9.180;2023-09-30T05:42:49;16.60;99.90
423;DHT22;198;48.752;9.180;2023-09-30T05:45:15;16.50;99.90
423;DHT22;198;48.752;9.180;2023-09-30T05:47:41;16.60;99.90
423;DHT22;198;48.752;9.180;2023-09-30T05:50:07;16.60;99.90
423;DHT22;198;48.752;9.180;2023-09-30T05:52:34;16.70;99.90
423;DHT22;198;48.752;9.180;2023-09-30T05:55:00;16.80;99.90
423;DHT22;198;48.752;9.180;2023-09-30T05:57:27;16.80;99.90
423;DHT22;198;48.752;9.180;2023-09-30T05:59:52;16.90;99.90
423;DHT22;198;48.752;9.180;2023-09-30T06:02:18;17.00;99.90
423;DHT22;198;48.752;9.180;2023-09-30T06:04:44;17.10;99.90
423;DHT22;198;48.752;9.180;2023-09-30T06:07:11;17.10;99.90
423;DHT22;198;48.752;9.180;2023-09-30T06:09:37;17.10;99.90
423;DHT22;198;48.752;9.180;2023-09-30T06:12:03;17.20;99.90
423;DHT22;198;48.752;9.180;2023-09-30T06:14:32;17.20;99.90
423;DHT22;198;48.752;9.180;2023-09-30T06:16:58;17.20;99.90
423;DHT22;198;48.752;9.180;2023-09-30T06:19:24;17.20;99.90
423;DHT22;198;48.752;9.180;2023-09-30T06:21:51;17.30;99.90
423;DHT22;198;48.752;9.180;2023-09-30T06:24:17;17.30;99.90
423;DHT22;198;48.752;9.180;2023-09-30T06:26:45;17.40;99.90
423;DHT22;198;48.752;9.180;2023-09-30T06:29:10;17.40;99.90
423;DHT22;198;48.752;9.180;2023-09-30T06:31:37;17.50;99.90
423;DHT22;198;48.752;9.180;2023-09-30T06:34:02;17.50;99.90
423;DHT22;198;48.752;9.180;2023-09-30T06:36:29;17.50;99.90
423;DHT22;198;48.752;9.180;2023-09-30T06:38:54;17.50;99.90
423;DHT22;198;48.752;9.180;2023-09-30T06:41:20;17.50;99.90
423;DHT22;198;48.752;9.180;2023-09-30T06:43:45;17.40;99.90
423;DHT22;198;48.752;9.180;2023-09-30T06:46:12;17.50;99.90
423;DHT22;198;48.752;9.180;2023-09-30T06:48:38;17.60;99.90
423;DHT22;198;48.752;9.180;2023-09-30T06:51:06;17.60;99.90
423;DHT22;198;48.752;9.180;2023-09-30T06:53:31;17.70;99.90
423;DHT22;198;48.752;9.180;2023-09-30T06:55:57;17.80;99.90
423;DHT22;198;48.752;9.180;2023-09-30T06:58:23;18.00;99.90
423;DHT22;198;48.752;9.180;2023-09-30T07:00:52;18.20;99.90
423;DHT22;198;48.752;9.180;2023-09-30T07:03:19;18.30;99.90
423;DHT22;198;48.752;9.180;2023-09-30T07:05:45;18.30;99.90
423;DHT22;198;48.752;9.180;2023-09-30T07:08:11;18.40;99.90
423;DHT22;198;48.752;9.180;2023-09-30T07:10:36;18.40;99.90
423;DHT22;198;48.752;9.180;2023-09-30T07:13:03;18.50;99.90
423;DHT22;198;48.752;9.180;2023-09-30T07:15:29;18.70;99.90
423;DHT22;198;48.752;9.180;2023-09-30T07:17:54;18.80;99.90
423;DHT22;198;48.752;9.180;2023-09-30T07:20:20;18.80;99.90
423;DHT22;198;48.752;9.180;2023-09-30T07:22:47;18.80;99.90
423;DHT22;198;48.752;9.180;2023-09-30T07:25:13;18.70;99.90
423;DHT22;198;48.752;9.180;2023-09-30T07:27:45;18.60;99.90
423;DHT22;198;48.752;9.180;2023-09-30T07:30:12;18.50;99.90
423;DHT22;198;48.752;9.180;2023-09-30T07:32:42;18.50;99.90
423;DHT22;198;48.752;9.180;2023-09-30T07:35:08;18.50;99.90
423;DHT22;198;48.752;9.180;2023-09-30T07:37:33;18.60;99.90
423;DHT22;198;48.752;9.180;2023-09-30T07:39:59;18.70;99.90
423;DHT22;198;48.752;9.180;2023-09-30T07:42:25;18.80;99.90
423;DHT22;198;48.752;9.180;2023-09-30T07:44:50;18.80;99.90
423;DHT22;198;48.752;9.180;2023-09-30T07:47:16;18.90;99.90
423;DHT22;198;48.752;9.180;2023-09-30T07:49:41;18.90;99.90
423;DHT22;198;48.752;9.180;2023-09-30T07:52:07;18.90;99.90
423;DHT22;198;48.752;9.180;2023-09-30T07:54:32;19.00;99.90
423;DHT22;198;48.752;9.180;2023-09-30T07:56:58;19.10;99.90
423;DHT22;198;48.752;9.180;2023-09-30T07:59:25;19.30;99.90
423;DHT22;198;48.752;9.180;2023-09-30T08:01:51;19.40;99.90
423;DHT22;198;48.752;9.180;2023-09-30T08:04:18;19.40;99.90
423;DHT22;198;48.752;9.180;2023-09-30T08:06:43;19.50;99.90
423;DHT22;198;48.752;9.180;2023-09-30T08:09:09;19.60;99.90
423;DHT22;198;48.752;9.180;2023-09-30T08:11:38;19.70;99.90
423;DHT22;198;48.752;9.180;2023-09-30T08:14:04;19.80;99.90
423;DHT22;198;48.752;9.180;2023-09-30T08:16:33;19.90;99.90
423;DHT22;198;48.752;9.180;2023-09-30T08:18:58;20.00;99.90
423;DHT22;198;48.752;9.180;2023-09-30T08:21:24;20.20;99.90
423;DHT22;198;48.752;9.180;2023-09-30T08:23:49;20.40;99.90
423;DHT22;198;48.752;9.180;2023-09-30T08:26:15;20.70;99.90
423;DHT22;198;48.752;9.180;2023-09-30T08:28:40;21.00;99.90
423;DHT22;198;48.752;9.180;2023-09-30T08:31:06;21.10;99.90
423;DHT22;198;48.752;9.180;2023-09-30T08:33:32;21.30;99.90
423;DHT22;198;48.752;9.180;2023-09-30T08:36:04;21.80;99.60
423;DHT22;198;48.752;9.180;2023-09-30T08:38:37;22.20;96.30
423;DHT22;198;48.752;9.180;2023-09-30T08:41:03;22.60;92.90
423;DHT22;198;48.752;9.180;2023-09-30T08:43:30;22.80;90.70
423;DHT22;198;48.752;9.180;2023-09-30T08:45:59;22.90;88.50
423;DHT22;198;48.752;9.180;2023-09-30T08:48:26;22.60;87.30
423;DHT22;198;48.752;9.180;2023-09-30T08:50:53;22.30;86.90
423;DHT22;198;48.752;9.180;2023-09-30T08:53:20;22.40;89.50
423;DHT22;198;48.752;9.180;2023-09-30T08:55:46;23.10;88.40
423;DHT22;198;48.752;9.180;2023-09-30T08:58:12;23.30;82.10
423;DHT22;198;48.752;9.180;2023-09-30T09:00:39;23.30;83.00
423;DHT22;198;48.752;9.180;2023-09-30T09:03:06;23.40;83.20
423;DHT22;198;48.752;9.180;2023-09-30T09:05:32;23.20;81.90
423;DHT22;198;48.752;9.180;2023-09-30T09:07:58;22.90;80.20
423;DHT22;198;48.752;9.180;2023-09-30T09:10:24;22.80;81.90
423;DHT22;198;48.752;9.180;2023-09-30T09:12:57;22.70;82.90
423;DHT22;198;48.752;9.180;2023-09-30T09:15:25;22.60;83.60
423;DHT22;198;48.752;9.180;2023-09-30T09:17:50;22.70;82.80
423;DHT22;198;48.752;9.180;2023-09-30T09:20:18;22.70;82.30
423;DHT22;198;48.752;9.180;2023-09-30T09:22:49;22.80;81.90
423;DHT22;198;48.752;9.180;2023-09-30T09:25:16;23.00;82.40
423;DHT22;198;48.752;9.180;2023-09-30T09:27:41;23.20;82.70
423;DHT22;198;48.752;9.180;2023-09-30T09:35:20;25.70;74.60
423;DHT22;198;48.752;9.180;2023-09-30T09:38:15;27.60;65.40
423;DHT22;198;48.752;9.180;2023-09-30T09:40:41;28.90;58.00
423;DHT22;198;48.752;9.180;2023-09-30T09:43:07;28.50;55.00
423;DHT22;198;48.752;9.180;2023-09-30T09:45:36;28.40;55.20
423;DHT22;198;48.752;9.180;2023-09-30T09:48:06;28.10;53.90
423;DHT22;198;48.752;9.180;2023-09-30T09:50:32;27.50;54.20
423;DHT22;198;48.752;9.180;2023-09-30T09:52:58;27.00;54.80
423;DHT22;198;48.752;9.180;2023-09-30T09:55:26;26.40;55.10
423;DHT22;198;48.752;9.180;2023-09-30T09:57:53;25.90;56.30
423;DHT22;198;48.752;9.180;2023-09-30T10:00:23;26.10;57.20
423;DHT22;198;48.752;9.180;2023-09-30T10:02:49;26.60;56.70
423;DHT22;198;48.752;9.180;2023-09-30T10:05:16;28.80;54.20
423;DHT22;198;48.752;9.180;2023-09-30T10:08:00;30.90;48.50
423;DHT22;198;48.752;9.180;2023-09-30T10:10:27;30.70;46.40
423;DHT22;198;48.752;9.180;2023-09-30T10:12:53;30.70;46.70
423;DHT22;198;48.752;9.180;2023-09-30T10:20:35;32.30;40.50
423;DHT22;198;48.752;9.180;2023-09-30T10:25:42;31.10;40.80
423;DHT22;198;48.752;9.180;2023-09-30T10:28:39;30.40;41.90
423;DHT22;198;48.752;9.180;2023-09-30T10:31:18;29.90;42.80
423;DHT22;198;48.752;9.180;2023-09-30T10:36:36;29.10;42.60
423;DHT22;198;48.752;9.180;2023-09-30T10:39:11;29.10;43.20
423;DHT22;198;48.752;9.180;2023-09-30T10:46:51;28.20;44.40
423;DHT22;198;48.752;9.180;2023-09-30T10:51:56;27.50;44.50
423;DHT22;198;48.752;9.180;2023-09-30T10:54:27;27.10;45.20
423;DHT22;198;48.752;9.180;2023-09-30T10:56:53;26.70;45.70
423;DHT22;198;48.752;9.180;2023-09-30T10:59:19;26.60;46.90
423;DHT22;198;48.752;9.180;2023-09-30T11:01:45;26.40;47.10
423;DHT22;198;48.752;9.180;2023-09-30T11:04:11;26.20;47.40
423;DHT22;198;48.752;9.180;2023-09-30T11:06:40;26.10;47.40
423;DHT22;198;48.752;9.180;2023-09-30T11:09:06;26.10;46.20
423;DHT22;198;48.752;9.180;2023-09-30T11:14:25;26.20;47.90
423;DHT22;198;48.752;9.180;2023-09-30T11:16:56;26.10;48.30
423;DHT22;198;48.752;9.180;2023-09-30T11:19:22;25.90;48.10
423;DHT22;198;48.752;9.180;2023-09-30T11:21:49;25.80;48.50
423;DHT22;198;48.752;9.180;2023-09-30T11:24:15;25.90;48.90
423;DHT22;198;48.752;9.180;2023-09-30T11:26:41;26.10;49.00
423;DHT22;198;48.752;9.180;2023-09-30T11:31:32;26.10;48.70
423;DHT22;198;48.752;9.180;2023-09-30T11:34:00;25.90;47.50
423;DHT22;198;48.752;9.180;2023-09-30T11:36:29;25.60;47.70
423;DHT22;198;48.752;9.180;2023-09-30T11:38:55;25.80;48.80
423;DHT22;198;48.752;9.180;2023-09-30T11:41:21;26.00;49.10
423;DHT22;198;48.752;9.180;2023-09-30T11:46:55;26.40;48.30
423;DHT22;198;48.752;9.180;2023-09-30T11:49:35;26.60;47.80
423;DHT22;198;48.752;9.180;2023-09-30T11:52:02;26.70;47.50
423;DHT22;198;48.752;9.180;2023-09-30T11:54:45;26.80;47.00
423;DHT22;198;48.752;9.180;2023-09-30T11:57:17;27.20;45.50
423;DHT22;198;48.752;9.180;2023-09-30T11:59:45;29.30;41.60
423;DHT22;198;48.752;9.180;2023-09-30T12:02:11;31.40;40.40
423;DHT22;198;48.752;9.180;2023-09-30T12:04:38;34.10;35.80
423;DHT22;198;48.752;9.180;2023-09-30T12:07:03;36.40;33.10
423;DHT22;198;48.752;9.180;2023-09-30T12:09:29;37.30;28.70
423;DHT22;198;48.752;9.180;2023-09-30T12:11:56;38.10;28.40
423;DHT22;198;48.752;9.180;2023-09-30T12:14:23;40.40;27.20
423;DHT22;198;48.752;9.180;2023-09-30T12:16:49;41.90;25.20
423;DHT22;198;48.752;9.180;2023-09-30T12:19:16;43.50;23.80
423;DHT22;198;48.752;9.180;2023-09-30T12:21:43;44.80;22.30
423;DHT22;198;48.752;9.180;2023-09-30T12:24:12;45.70;21.40
423;DHT22;198;48.752;9.180;2023-09-30T12:26:45;46.30;20.50
423;DHT22;198;48.752;9.180;2023-09-30T12:29:17;46.50;19.80
423;DHT22;198;48.752;9.180;2023-09-30T12:31:46;45.80;19.90
423;DHT22;198;48.752;9.180;2023-09-30T12:34:12;44.00;20.50
423;DHT22;198;48.752;9.180;2023-09-30T12:36:39;42.70;21.00
423;DHT22;198;48.752;9.180;2023-09-30T12:39:05;42.30;21.70
423;DHT22;198;48.752;9.180;2023-09-30T12:41:38;42.10;20.90
423;DHT22;198;48.752;9.180;2023-09-30T12:44:05;40.90;21.50
423;DHT22;198;48.752;9.180;2023-09-30T12:46:30;39.40;22.60
423;DHT22;198;48.752;9.180;2023-09-30T12:48:56;40.00;22.50
423;DHT22;198;48.752;9.180;2023-09-30T12:51:22;41.50;21.30
423;DHT22;198;48.752;9.180;2023-09-30T12:53:48;42.80;20.20
423;DHT22;198;48.752;9.180;2023-09-30T12:56:13;44.10;20.60
423;DHT22;198;48.752;9.180;2023-09-30T12:58:39;44.70;18.70
423;DHT22;198;48.752;9.180;2023-09-30T13:01:04;45.00;18.80
423;DHT22;198;48.752;9.180;2023-09-30T13:03:31;44.90;19.00
423;DHT22;198;48.752;9.180;2023-09-30T13:05:57;44.00;19.50
423;DHT22;198;48.752;9.180;2023-09-30T13:08:23;42.60;20.20
423;DHT22;198;48.752;9.180;2023-09-30T13:10:48;42.50;20.90
423;DHT22;198;48.752;9.180;2023-09-30T13:13:15;43.20;20.70
423;DHT22;198;48.752;9.180;2023-09-30T13:15:41;44.30;19.60
423;DHT22;198;48.752;9.180;2023-09-30T13:18:07;45.70;19.60
423;DHT22;198;48.752;9.180;2023-09-30T13:20:32;47.00;18.80
423;DHT22;198;48.752;9.180;2023-09-30T13:22:58;47.80;18.30
423;DHT22;198;48.752;9.180;2023-09-30T13:25:24;46.40;17.00
423;DHT22;198;48.752;9.180;2023-09-30T13:27:49;46.50;17.70
423;DHT22;198;48.752;9.180;2023-09-30T13:30:15;46.60;17.60
423;DHT22;198;48.752;9.180;2023-09-30T13:32:40;47.00;18.10
423;DHT22;198;48.752;9.180;2023-09-30T13:35:06;46.90;17.40
423;DHT22;198;48.752;9.180;2023-09-30T13:37:32;46.60;17.80
423;DHT22;198;48.752;9.180;2023-09-30T13:40:02;46.40;17.70
423;DHT22;198;48.752;9.180;2023-09-30T13:42:29;45.90;17.80
423;DHT22;198;48.752;9.180;2023-09-30T13:44:55;46.60;18.00
423;DHT22;198;48.752;9.180;2023-09-30T13:47:23;47.30;17.20
423;DHT22;198;48.752;9.180;2023-09-30T13:49:49;47.10;16.90
423;DHT22;198;48.752;9.180;2023-09-30T13:52:14;46.90;17.00
423;DHT22;198;48.752;9.180;2023-09-30T13:54:40;46.40;17.20
423;DHT22;198;48.752;9.180;2023-09-30T13:57:05;45.80;17.40
423;DHT22;198;48.752;9.180;2023-09-30T13:59:34;45.40;18.10
423;DHT22;198;48.752;9.180;2023-09-30T14:02:00;45.40;18.30
423;DHT22;198;48.752;9.180;2023-09-30T14:04:26;44.60;18.00
423;DHT22;198;48.752;9.180;2023-09-30T14:06:51;43.90;18.90
423;DHT22;198;48.752;9.180;2023-09-30T14:09:17;42.70;19.30
423;DHT22;198;48.752;9.180;2023-09-30T14:11:43;40.90;20.70
423;DHT22;198;48.752;9.180;2023-09-30T14:14:09;39.90;21.50
423;DHT22;198;48.752;9.180;2023-09-30T14:16:35;39.50;21.60
423;DHT22;198;48.752;9.180;2023-09-30T14:19:02;39.10;22.00
423;DHT22;198;48.752;9.180;2023-09-30T14:21:28;37.80;22.40
423;DHT22;198;48.752;9.180;2023-09-30T14:23:54;36.30;23.50
423;DHT22;198;48.752;9.180;2023-09-30T14:26:19;35.00;24.60
423;DHT22;198;48.752;9.180;2023-09-30T14:28:45;33.70;25.30
423;DHT22;198;48.752;9.180;2023-09-30T14:31:10;32.90;26.50
423;DHT22;198;48.752;9.180;2023-09-30T14:33:36;32.30;27.40
423;DHT22;198;48.752;9.180;2023-09-30T14:36:03;31.90;28.30
423;DHT22;198;48.752;9.180;2023-09-30T14:38:31;31.50;28.30
423;DHT22;198;48.752;9.180;2023-09-30T14:40:57;31.40;28.80
423;DHT22;198;48.752;9.180;2023-09-30T14:43:22;31.30;29.20
423;DHT22;198;48.752;9.180;2023-09-30T14:45:48;31.40;28.90
423;DHT22;198;48.752;9.180;2023-09-30T14:48:13;31.90;28.30
423;DHT22;198;48.752;9.180;2023-09-30T14:50:48;32.40;27.80
423;DHT22;198;48.752;9.180;2023-09-30T14:53:14;32.80;27.60
423;DHT22;198;48.752;9.180;2023-09-30T14:55:39;32.80;27.70
423;DHT22;198;48.752;9.180;2023-09-30T14:58:06;32.80;28.10
423;DHT22;198;48.752;9.180;2023-09-30T15:00:31;32.80;28.20
423;DHT22;198;48.752;9.180;2023-09-30T15:02:57;32.40;27.90
423;DHT22;198;48.752;9.180;2023-09-30T15:05:22;32.10;28.40
423;DHT22;198;48.752;9.180;2023-09-30T15:07:49;31.50;29.10
423;DHT22;198;48.752;9.180;2023-09-30T15:10:15;30.90;29.90
423;DHT22;198;48.752;9.180;2023-09-30T15:12:40;30.80;29.80
423;DHT22;198;48.752;9.180;2023-09-30T15:15:06;31.10;30.10
423;DHT22;198;48.752;9.180;2023-09-30T15:17:32;30.80;30.00
423;DHT22;198;48.752;9.180;2023-09-30T15:19:58;30.60;30.20
423;DHT22;198;48.752;9.180;2023-09-30T15:22:24;30.30;30.60
423;DHT22;198;48.752;9.180;2023-09-30T15:24:50;30.00;30.90
423;DHT22;198;48.752;9.180;2023-09-30T15:27:15;29.60;31.20
423;DHT22;198;48.752;9.180;2023-09-30T15:29:41;29.30;32.10
423;DHT22;198;48.752;9.180;2023-09-30T15:32:06;29.30;32.10
423;DHT22;198;48.752;9.180;2023-09-30T15:34:35;29.30;32.50
423;DHT22;198;48.752;9.180;2023-09-30T15:37:03;29.70;32.00
423;DHT22;198;48.752;9.180;2023-09-30T15:39:37;30.10;31.20
423;DHT22;198;48.752;9.180;2023-09-30T15:44:40;31.10;30.50
423;DHT22;198;48.752;9.180;2023-09-30T15:47:06;31.20;30.20
423;DHT22;198;48.752;9.180;2023-09-30T15:49:33;31.30;30.30
423;DHT22;198;48.752;9.180;2023-09-30T15:51:58;31.20;30.10
423;DHT22;198;48.752;9.180;2023-09-30T15:54:24;30.80;30.20
423;DHT22;198;48.752;9.180;2023-09-30T15:56:50;30.20;31.20
423;DHT22;198;48.752;9.180;2023-09-30T15:59:15;29.40;32.00
423;DHT22;198;48.752;9.180;2023-09-30T16:01:41;28.80;32.70
423;DHT22;198;48.752;9.180;2023-09-30T16:04:06;28.00;33.80
423;DHT22;198;48.752;9.180;2023-09-30T16:06:32;27.40;34.30
423;DHT22;198;48.752;9.180;2023-09-30T16:08:58;26.90;35.30
423;DHT22;198;48.752;9.180;2023-09-30T16:11:24;26.50;35.90
423;DHT22;198;48.752;9.180;2023-09-30T16:13:50;26.20;36.90
423;DHT22;198;48.752;9.180;2023-09-30T16:16:17;25.90;37.10
423;DHT22;198;48.752;9.180;2023-09-30T16:18:43;25.60;37.80
423;DHT22;198;48.752;9.180;2023-09-30T16:21:08;25.30;38.70
423;DHT22;198;48.752;9.180;2023-09-30T16:23:34;25.00;39.00
423;DHT22;198;48.752;9.180;2023-09-30T16:25:59;24.60;39.80
423;DHT22;198;48.752;9.180;2023-09-30T16:28:25;24.30;40.40
423;DHT22;198;48.752;9.180;2023-09-30T16:30:51;23.90;41.30
423;DHT22;198;48.752;9.180;2023-09-30T16:33:17;23.70;41.60
423;DHT22;198;48.752;9.180;2023-09-30T16:35:50;23.40;41.70
423;DHT22;198;48.752;9.180;2023-09-30T16:38:17;23.10;42.80
423;DHT22;198;48.752;9.180;2023-09-30T16:40:47;22.80;43.80
423;DHT22;198;48.752;9.180;2023-09-30T16:43:13;22.50;44.50
423;DHT22;198;48.752;9.180;2023-09-30T16:45:38;22.20;45.40
423;DHT22;198;48.752;9.180;2023-09-30T16:48:04;21.90;46.20
423;DHT22;198;48.752;9.180;2023-09-30T16:50:30;21.70;47.00
423;DHT22;198;48.752;9.180;2023-09-30T16:52:55;21.50;48.00
423;DHT22;198;48.752;9.180;2023-09-30T16:55:20;21.20;48.60
423;DHT22;198;48.752;9.180;2023-09-30T16:57:46;21.00;49.20
423;DHT22;198;48.752;9.180;2023-09-30T17:00:12;20.80;49.90
423;DHT22;198;48.752;9.180;2023-09-30T17:02:41;20.60;50.50
423;DHT22;198;48.752;9.180;2023-09-30T17:05:07;20.40;51.00